Lethbridge Airport, Alberta

12:18 PM MDT on August 28, 2016 (GMT -0600)
Lethbridge Airport | | Change Station

Elev 3048 ft 49.63 °N, 112.79 °W | Updated 18 minutes ago

Mostly Cloudy
Mostly Cloudy
54 °F
Feels Like 54 °F
N
9
Wind Variable Wind from NNW

Today
High -- | Low -- °F
--% Chance of Precip.
Yesterday
High -- | Low -- °F
Precip. -- in
Pressure 30.17 in
Visibility 25.0 miles
Clouds Few 1500 ft
Mostly Cloudy 4600 ft
Dew Point 43 °F
Humidity 67%
Rainfall 0.00 in
Snow Depth Not available.
6:41 AM 8:21 PM
Waning Crescent, 14% visible
METAR CYQL 281800Z 34008KT 300V030 25SM FEW015 BKN046 12/06 A3014 RMK SC1SC6 SLP215 DENSITY ALT 3100FT
Pressure 30.17 in
Visibility 25.0 miles
Clouds Few 1500 ft
Mostly Cloudy 4600 ft
Dew Point 43 °F
Humidity 67%
Rainfall 0.00 in
Snow Depth Not available.
6:41 AM 8:21 PM
Waning Crescent, 14% visible
METAR CYQL 281800Z 34008KT 300V030 25SM FEW015 BKN046 12/06 A3014 RMK SC1SC6 SLP215 DENSITY ALT 3100FT

10-Day Weather Forecast

No radar image for this location.
×

Almanac

Astronomy

Aug. 28, 2016 Rise Set
Actual Time
Civil Twilight
Nautical Twilight
Astronomical Twilight
Moon
Length of Visible Light
Length of Day
Tomorrow will be .
, % of the Moon is Illuminated

Today's Extremes

Country Highs Country Lows

Community

WunderPhotos

Upload Photos

1,935,644 photos uploaded!

WunderBlog® & News

Nearby

Air Quality

  Air Quality AQ Index Pollutant
Not available.

Snow Depth

Station Depth Elevation

Earthquake Activity

City Distance Mag. Time & Date
Minimum magnitude displayed is 2.5.

Coastal Water Temperatures

Place Temperature

Stations

Nearby Weather Stations

Station Location Temp. Windchill Dew Point Humidity Wind Precip. Elev Updated Type
                   

Watches & Warnings

There are currently no watches in effect.